Time;durP1;ratioP1;P1;durP2;ratioP2;P2;SDS_P1;SDS_P2;PMS_P1;PMS_P2;Temp;Humidity;BMP_temperature;BMP_pressure;BME280_temperature;BME280_humidity;BME280_pressure;Samples;Min_cycle;Max_cycle;Signal;HPM_P1;HPM_P2
2021/09/12 00:00:08;;;;;;;16.30;8.32;;;17.60;99.90;;;;;;4959647;28;20027;-70
2021/09/12 00:02:34;;;;;;;16.60;8.45;;;17.50;99.90;;;;;;4959228;28;20187;-70
2021/09/12 00:04:59;;;;;;;17.98;9.48;;;17.50;99.90;;;;;;4958475;28;20075;-70
2021/09/12 00:07:25;;;;;;;15.32;9.13;;;17.50;99.90;;;;;;4959259;29;20470;-70
2021/09/12 00:09:51;;;;;;;20.45;9.82;;;17.50;99.90;;;;;;4964742;28;20089;-70
2021/09/12 00:12:16;;;;;;;18.25;10.65;;;17.50;99.90;;;;;;4984892;28;20428;-70
2021/09/12 00:14:43;;;;;;;20.23;11.02;;;17.50;99.90;;;;;;4978782;28;20049;-70
2021/09/12 00:17:08;;;;;;;18.88;11.20;;;17.50;99.90;;;;;;4959494;29;20023;-70
2021/09/12 00:19:34;;;;;;;20.35;10.82;;;17.50;99.90;;;;;;4969666;28;20061;-70
2021/09/12 00:22:00;;;;;;;20.35;12.13;;;17.40;99.90;;;;;;4977421;28;20106;-70
2021/09/12 00:24:25;;;;;;;21.73;11.93;;;17.40;99.90;;;;;;4958023;28;20119;-70
2021/09/12 00:26:51;;;;;;;19.00;12.10;;;17.40;99.90;;;;;;4968528;28;20035;-70
2021/09/12 00:29:18;;;;;;;17.38;11.18;;;17.40;99.90;;;;;;4977941;28;20058;-70
2021/09/12 00:31:44;;;;;;;19.25;11.73;;;17.40;99.90;;;;;;4959528;28;20039;-70
2021/09/12 00:34:09;;;;;;;21.40;11.40;;;17.40;99.90;;;;;;4959583;28;20088;-70
2021/09/12 00:36:35;;;;;;;24.08;11.85;;;17.40;99.90;;;;;;4958755;29;20078;-70
2021/09/12 00:39:01;;;;;;;18.35;10.93;;;17.40;99.90;;;;;;4959090;28;20034;-70
2021/09/12 00:41:26;;;;;;;16.50;10.95;;;17.40;99.90;;;;;;4958833;28;20044;-70
2021/09/12 00:43:51;;;;;;;23.50;11.75;;;17.30;99.90;;;;;;4959269;28;20019;-70
2021/09/12 00:46:17;;;;;;;19.40;10.63;;;17.30;99.90;;;;;;4957801;28;20033;-70
2021/09/12 00:48:43;;;;;;;16.15;9.18;;;17.30;99.90;;;;;;4959110;28;20481;-71
2021/09/12 00:51:08;;;;;;;16.30;10.38;;;17.30;99.90;;;;;;4959209;29;20033;-70
2021/09/12 00:53:37;;;;;;;16.23;9.60;;;17.30;99.90;;;;;;4959111;28;20109;-70
2021/09/12 00:56:03;;;;;;;18.08;9.75;;;17.30;99.90;;;;;;4964555;28;20442;-70
2021/09/12 00:58:31;;;;;;;16.35;10.23;;;17.20;99.90;;;;;;4955776;28;20037;-70
2021/09/12 01:00:57;;;;;;;15.57;10.15;;;17.20;99.90;;;;;;4956060;28;20023;-70
2021/09/12 01:03:23;;;;;;;22.48;11.07;;;17.20;99.90;;;;;;4955887;28;20441;-70
2021/09/12 01:05:48;;;;;;;14.32;9.20;;;17.20;99.90;;;;;;4955813;28;20106;-70
2021/09/12 01:08:14;;;;;;;20.02;10.27;;;17.20;99.90;;;;;;4959364;28;20421;-70
2021/09/12 01:10:41;;;;;;;14.75;9.50;;;17.10;99.90;;;;;;4975177;28;20034;-70
2021/09/12 01:13:07;;;;;;;18.83;10.07;;;17.10;99.90;;;;;;4974001;28;20026;-70
2021/09/12 01:15:33;;;;;;;15.75;9.70;;;17.10;99.90;;;;;;4966536;28;20465;-70
2021/09/12 01:17:59;;;;;;;17.23;9.63;;;17.00;99.90;;;;;;4955800;29;20027;-70
2021/09/12 01:20:24;;;;;;;18.00;9.77;;;16.90;99.90;;;;;;4955660;28;20371;-70
2021/09/12 01:22:50;;;;;;;15.48;8.77;;;16.90;99.90;;;;;;4961124;28;20057;-69
2021/09/12 01:25:16;;;;;;;13.65;8.98;;;16.80;99.90;;;;;;4973382;28;20424;-70
2021/09/12 01:27:42;;;;;;;12.73;8.73;;;16.80;99.90;;;;;;4958881;28;20367;-70
2021/09/12 01:30:09;;;;;;;15.27;9.20;;;16.70;99.90;;;;;;4955522;28;20031;-70
2021/09/12 01:32:35;;;;;;;16.13;8.77;;;16.70;99.90;;;;;;4953988;29;20034;-70
2021/09/12 01:35:01;;;;;;;14.15;8.70;;;16.70;99.90;;;;;;4955512;28;20031;-70
2021/09/12 01:37:27;;;;;;;16.88;9.68;;;16.60;99.90;;;;;;4954824;28;20055;-70
2021/09/12 01:39:52;;;;;;;15.10;10.13;;;16.60;99.90;;;;;;4955205;28;20403;-70
2021/09/12 01:42:18;;;;;;;18.85;10.32;;;16.60;99.90;;;;;;4954942;28;20398;-70
2021/09/12 01:44:48;;;;;;;19.33;10.35;;;16.50;99.90;;;;;;4961104;28;20023;-70
2021/09/12 01:47:13;;;;;;;18.63;9.43;;;16.50;99.90;;;;;;4973645;28;20432;-70
2021/09/12 01:49:40;;;;;;;15.75;10.30;;;16.50;99.90;;;;;;4955590;28;20031;-70
2021/09/12 01:52:06;;;;;;;17.52;9.98;;;16.40;99.90;;;;;;4955051;29;20031;-71
2021/09/12 01:54:31;;;;;;;15.00;9.48;;;16.30;99.90;;;;;;4954809;28;20043;-69
2021/09/12 01:56:57;;;;;;;18.85;9.45;;;16.30;99.90;;;;;;4955175;28;20082;-69
2021/09/12 01:59:22;;;;;;;15.23;9.32;;;16.30;99.90;;;;;;4954923;28;20552;-70
2021/09/12 02:01:48;;;;;;;15.68;9.27;;;16.20;99.90;;;;;;4955255;28;20019;-70
2021/09/12 02:04:14;;;;;;;14.45;8.43;;;16.10;99.90;;;;;;4954919;29;20055;-70
2021/09/12 02:06:39;;;;;;;16.08;9.45;;;16.10;99.90;;;;;;4957192;28;20055;-70
2021/09/12 02:09:05;;;;;;;15.82;7.93;;;16.00;99.90;;;;;;4961728;28;20039;-70
2021/09/12 02:11:30;;;;;;;13.32;8.27;;;15.90;99.90;;;;;;4954489;28;20122;-70
2021/09/12 02:13:57;;;;;;;14.63;8.27;;;15.90;99.90;;;;;;4969704;28;20027;-69
2021/09/12 02:16:24;;;;;;;13.60;7.80;;;15.90;99.90;;;;;;4954334;28;20027;-69
2021/09/12 02:18:50;;;;;;;14.45;7.78;;;15.80;99.90;;;;;;4954710;28;20027;-70
2021/09/12 02:21:16;;;;;;;14.90;7.65;;;15.80;99.90;;;;;;4953037;29;20031;-70
2021/09/12 02:23:42;;;;;;;14.95;7.60;;;15.80;99.90;;;;;;4954656;28;20467;-69
2021/09/12 02:26:08;;;;;;;12.43;7.03;;;15.70;99.90;;;;;;4954497;28;20031;-69
2021/09/12 02:28:33;;;;;;;15.68;8.02;;;15.70;99.90;;;;;;4954246;28;20039;-70
2021/09/12 02:30:59;;;;;;;10.43;6.32;;;15.70;99.90;;;;;;4954538;28;20069;-69
2021/09/12 02:33:25;;;;;;;12.98;6.88;;;15.60;99.90;;;;;;4954202;28;20023;-69
2021/09/12 02:35:50;;;;;;;18.75;6.97;;;15.60;99.90;;;;;;4962072;28;20105;-69
2021/09/12 02:38:16;;;;;;;12.10;6.05;;;15.60;99.90;;;;;;4973233;28;20102;-69
2021/09/12 02:40:41;;;;;;;11.25;6.10;;;15.50;99.90;;;;;;4973471;28;20385;-69
2021/09/12 02:43:07;;;;;;;12.73;6.30;;;15.50;99.90;;;;;;4964744;28;20030;-69
2021/09/12 02:45:34;;;;;;;12.80;5.97;;;15.40;99.90;;;;;;4952753;29;20023;-69
2021/09/12 02:47:59;;;;;;;10.13;4.63;;;15.40;99.90;;;;;;4971392;28;20062;-70
2021/09/12 02:50:25;;;;;;;11.57;5.57;;;15.30;99.90;;;;;;4961537;28;20058;-69
2021/09/12 02:52:50;;;;;;;10.60;5.55;;;15.20;99.90;;;;;;4954188;28;20035;-70
2021/09/12 02:55:16;;;;;;;14.57;6.10;;;15.20;99.90;;;;;;4953692;28;20173;-70
2021/09/12 02:57:41;;;;;;;11.57;5.05;;;15.10;99.90;;;;;;4964923;28;20089;-69
2021/09/12 03:00:08;;;;;;;13.10;6.03;;;15.00;99.90;;;;;;4968500;28;20363;-69
2021/09/12 03:02:34;;;;;;;13.60;5.95;;;15.00;99.90;;;;;;4953986;29;20437;-70
2021/09/12 03:05:00;;;;;;;11.80;5.68;;;14.90;99.90;;;;;;4953965;28;20023;-69
2021/09/12 03:07:25;;;;;;;13.55;5.68;;;14.80;99.90;;;;;;4953411;29;20385;-69
2021/09/12 03:09:51;;;;;;;11.55;5.90;;;14.80;99.90;;;;;;4953524;28;20393;-69
2021/09/12 03:12:17;;;;;;;13.25;5.53;;;14.80;99.90;;;;;;4953381;29;20027;-70
2021/09/12 03:14:42;;;;;;;15.48;6.18;;;14.70;99.90;;;;;;4954040;28;20102;-69
2021/09/12 03:17:08;;;;;;;13.25;5.95;;;14.60;99.90;;;;;;4961903;28;20027;-70
2021/09/12 03:19:34;;;;;;;9.77;5.68;;;14.60;99.90;;;;;;4969306;28;20496;-69
2021/09/12 03:21:59;;;;;;;14.80;6.78;;;14.50;99.90;;;;;;4968550;28;20019;-70
2021/09/12 03:24:25;;;;;;;11.77;6.13;;;14.50;99.90;;;;;;4953449;29;20070;-70
2021/09/12 03:26:50;;;;;;;10.95;6.60;;;14.40;99.90;;;;;;4953684;29;20063;-69
2021/09/12 03:29:16;;;;;;;16.00;7.50;;;14.40;99.90;;;;;;4970145;28;20046;-70
2021/09/12 03:31:41;;;;;;;12.40;6.82;;;14.30;99.90;;;;;;4971401;28;20081;-69
2021/09/12 03:34:07;;;;;;;14.98;6.95;;;14.30;99.90;;;;;;4953856;28;20023;-69
2021/09/12 03:36:32;;;;;;;12.57;6.43;;;14.20;99.90;;;;;;4952996;28;20488;-69
2021/09/12 03:38:58;;;;;;;15.95;7.85;;;14.20;99.90;;;;;;4952269;28;20023;-69
2021/09/12 03:41:24;;;;;;;16.63;7.90;;;14.20;99.90;;;;;;4953390;28;20062;-69
2021/09/12 03:43:49;;;;;;;14.93;8.32;;;14.20;99.90;;;;;;4953318;28;20027;-69
2021/09/12 03:46:15;;;;;;;15.13;8.02;;;14.10;99.90;;;;;;4953176;29;20102;-69
2021/09/12 03:48:40;;;;;;;14.07;7.90;;;14.10;99.90;;;;;;4953734;28;20050;-69
2021/09/12 03:51:06;;;;;;;13.23;8.18;;;14.00;99.90;;;;;;4953482;28;20438;-69
2021/09/12 03:53:31;;;;;;;16.35;8.30;;;14.00;99.90;;;;;;4953068;28;20053;-70
2021/09/12 03:55:57;;;;;;;16.67;7.68;;;13.90;99.90;;;;;;4953352;28;20085;-69
2021/09/12 03:58:22;;;;;;;19.08;8.93;;;13.90;99.90;;;;;;4952734;28;20085;-69
2021/09/12 04:00:48;;;;;;;19.55;9.20;;;13.80;99.90;;;;;;4953378;28;20031;-69
2021/09/12 04:03:14;;;;;;;18.88;10.30;;;13.70;99.90;;;;;;4953613;29;20032;-70
2021/09/12 04:05:40;;;;;;;19.27;10.05;;;13.70;99.90;;;;;;4957172;28;20023;-69
2021/09/12 04:08:05;;;;;;;18.35;9.57;;;13.60;99.90;;;;;;4953400;28;20024;-69
2021/09/12 04:10:31;;;;;;;15.90;9.63;;;13.60;99.90;;;;;;4952843;28;20071;-69
2021/09/12 04:12:56;;;;;;;20.35;10.63;;;13.50;99.90;;;;;;4953170;29;20093;-69
2021/09/12 04:15:22;;;;;;;16.48;10.07;;;13.50;99.90;;;;;;4952824;28;20038;-69
2021/09/12 04:17:47;;;;;;;21.55;11.00;;;13.50;99.90;;;;;;4952973;28;20517;-69
2021/09/12 04:20:13;;;;;;;23.65;11.82;;;13.40;99.90;;;;;;4953032;28;20027;-69
2021/09/12 04:22:39;;;;;;;23.77;11.57;;;13.40;99.90;;;;;;4953271;28;20035;-69
2021/09/12 04:25:05;;;;;;;25.35;12.32;;;13.40;99.90;;;;;;4953077;29;20110;-69
2021/09/12 04:27:30;;;;;;;24.42;11.90;;;13.30;99.90;;;;;;4952572;29;20384;-69
2021/09/12 04:29:56;;;;;;;18.80;11.15;;;13.30;99.90;;;;;;4953022;28;20031;-69
2021/09/12 04:32:21;;;;;;;18.35;11.50;;;13.30;99.90;;;;;;4954971;28;20035;-70
2021/09/12 04:34:47;;;;;;;22.20;11.40;;;13.20;99.90;;;;;;4956657;28;20023;-70
2021/09/12 04:37:14;;;;;;;24.77;12.85;;;13.20;99.90;;;;;;4956603;28;20047;-70
2021/09/12 04:39:40;;;;;;;23.48;13.30;;;13.20;99.90;;;;;;4956631;28;20047;-69
2021/09/12 04:42:06;;;;;;;23.45;13.20;;;13.20;99.90;;;;;;4956359;29;20041;-69
2021/09/12 04:44:31;;;;;;;28.63;13.85;;;13.10;99.90;;;;;;4956249;28;20031;-69
2021/09/12 04:46:57;;;;;;;22.25;12.88;;;13.10;99.90;;;;;;4956270;28;20023;-69
2021/09/12 04:49:22;;;;;;;24.42;13.93;;;13.10;99.90;;;;;;4954846;28;20040;-69
2021/09/12 04:51:48;;;;;;;26.13;14.10;;;13.00;99.90;;;;;;4956358;29;20027;-69
2021/09/12 04:54:13;;;;;;;22.80;12.43;;;13.00;99.90;;;;;;4965673;28;20035;-69
2021/09/12 04:56:39;;;;;;;25.55;13.02;;;13.00;99.90;;;;;;4972588;28;20038;-69
2021/09/12 04:59:05;;;;;;;22.13;12.82;;;13.00;99.90;;;;;;4956397;29;20493;-69
2021/09/12 05:01:32;;;;;;;23.23;13.88;;;13.00;99.90;;;;;;4955746;28;20335;-69
2021/09/12 05:03:57;;;;;;;21.63;12.93;;;13.00;99.90;;;;;;4965746;28;20086;-69
2021/09/12 05:06:23;;;;;;;26.77;13.60;;;13.00;99.90;;;;;;4955926;29;20381;-70
2021/09/12 05:08:49;;;;;;;23.77;12.25;;;13.00;99.90;;;;;;4955908;28;20046;-69
2021/09/12 05:11:14;;;;;;;22.73;12.63;;;13.00;99.90;;;;;;4955457;28;20038;-70
2021/09/12 05:13:40;;;;;;;24.00;12.43;;;13.00;99.90;;;;;;4955942;29;20031;-69
2021/09/12 05:16:05;;;;;;;25.85;12.50;;;13.00;99.90;;;;;;4956151;28;20023;-69
2021/09/12 05:18:31;;;;;;;22.45;12.85;;;13.00;99.90;;;;;;4955174;28;20110;-70
2021/09/12 05:20:56;;;;;;;23.65;13.88;;;12.90;99.90;;;;;;4956114;28;20438;-69
2021/09/12 05:23:22;;;;;;;26.75;13.88;;;13.00;99.90;;;;;;4955491;29;20030;-69
2021/09/12 05:25:50;;;;;;;24.60;12.02;;;13.00;99.90;;;;;;4955624;28;20034;-69
2021/09/12 05:28:16;;;;;;;23.85;12.65;;;13.00;99.90;;;;;;4955498;28;20143;-69
2021/09/12 05:30:44;;;;;;;18.35;12.75;;;13.00;99.90;;;;;;4974535;28;20027;-69
2021/09/12 05:33:10;;;;;;;23.13;12.15;;;13.00;99.90;;;;;;4967420;28;20027;-69
2021/09/12 05:35:35;;;;;;;21.17;12.50;;;13.00;99.90;;;;;;4955221;28;20397;-69
2021/09/12 05:38:02;;;;;;;22.52;11.43;;;13.00;99.90;;;;;;4955900;29;20113;-69
2021/09/12 05:40:27;;;;;;;20.25;11.85;;;13.00;99.90;;;;;;4954810;28;20047;-69
2021/09/12 05:42:53;;;;;;;22.73;11.27;;;13.00;99.90;;;;;;4954458;28;20023;-69
2021/09/12 05:45:18;;;;;;;16.45;10.30;;;13.10;99.90;;;;;;4955002;28;20106;-69
2021/09/12 05:47:44;;;;;;;21.13;11.77;;;13.10;99.90;;;;;;4955528;29;20031;-69
2021/09/12 05:50:10;;;;;;;19.85;10.77;;;13.10;99.90;;;;;;4955408;28;20138;-69
2021/09/12 05:52:35;;;;;;;19.23;10.73;;;13.10;99.90;;;;;;4954887;28;20028;-69
2021/09/12 05:55:01;;;;;;;21.00;11.23;;;13.10;99.90;;;;;;4955285;29;20478;-69
2021/09/12 05:57:26;;;;;;;16.23;10.40;;;13.10;99.90;;;;;;4954649;28;20106;-69
2021/09/12 05:59:52;;;;;;;20.33;10.55;;;13.10;99.90;;;;;;4955244;29;20114;-69
2021/09/12 06:02:18;;;;;;;19.00;10.20;;;13.10;99.90;;;;;;4965857;28;20027;-69
2021/09/12 06:04:44;;;;;;;21.02;10.77;;;13.10;99.90;;;;;;4966499;28;20046;-69
2021/09/12 06:07:10;;;;;;;17.67;9.95;;;13.10;99.90;;;;;;4953744;28;20066;-69
2021/09/12 06:09:38;;;;;;;19.58;9.93;;;13.20;99.90;;;;;;4954522;28;20102;-69
2021/09/12 06:12:07;;;;;;;20.70;10.80;;;13.20;99.90;;;;;;4955323;28;20023;-69
2021/09/12 06:14:32;;;;;;;17.85;10.30;;;13.20;99.90;;;;;;4954152;28;20038;-69
2021/09/12 06:16:58;;;;;;;16.63;10.15;;;13.30;99.90;;;;;;4954757;28;20106;-69
2021/09/12 06:19:23;;;;;;;18.02;9.52;;;13.40;99.90;;;;;;4954351;29;20027;-69
2021/09/12 06:21:49;;;;;;;15.98;10.07;;;13.40;99.90;;;;;;4954577;28;20035;-69
2021/09/12 06:24:14;;;;;;;16.23;9.63;;;13.50;99.90;;;;;;4960417;28;20443;-70
2021/09/12 06:26:40;;;;;;;16.55;9.55;;;13.60;99.90;;;;;;4973750;28;20473;-69
2021/09/12 06:29:05;;;;;;;17.67;9.18;;;13.70;99.90;;;;;;4957557;28;20050;-69
2021/09/12 06:31:31;;;;;;;16.02;8.50;;;13.80;99.90;;;;;;4953995;29;20035;-69
2021/09/12 06:33:57;;;;;;;12.85;8.23;;;13.90;99.90;;;;;;4954637;28;20030;-69
2021/09/12 06:36:22;;;;;;;15.27;8.20;;;14.00;99.90;;;;;;4973028;28;20058;-69
2021/09/12 06:38:48;;;;;;;15.90;8.80;;;14.00;99.90;;;;;;4964039;28;20023;-69
2021/09/12 06:41:14;;;;;;;15.40;8.07;;;14.10;99.90;;;;;;4953790;28;20027;-69
2021/09/12 06:43:39;;;;;;;14.57;7.90;;;14.20;99.90;;;;;;4954113;28;20023;-70
2021/09/12 06:46:05;;;;;;;11.75;7.35;;;14.30;99.90;;;;;;4954419;28;20038;-69
2021/09/12 06:48:31;;;;;;;12.50;8.07;;;14.40;99.90;;;;;;4953745;28;20367;-69
2021/09/12 06:50:58;;;;;;;16.55;7.22;;;14.50;99.90;;;;;;4953259;29;20055;-69
2021/09/12 06:53:24;;;;;;;16.73;7.32;;;14.60;99.90;;;;;;4953653;28;20404;-69
2021/09/12 06:55:50;;;;;;;14.63;8.40;;;14.70;99.90;;;;;;4953708;28;20039;-69
2021/09/12 06:58:17;;;;;;;12.60;7.10;;;14.80;99.90;;;;;;4953356;29;20049;-69
2021/09/12 07:00:42;;;;;;;12.02;7.25;;;14.90;99.90;;;;;;4963565;28;20027;-69
2021/09/12 07:03:08;;;;;;;14.88;7.32;;;15.00;99.90;;;;;;4969968;28;20050;-69
2021/09/12 07:05:33;;;;;;;11.57;7.75;;;15.00;99.90;;;;;;4953296;28;20028;-69
2021/09/12 07:07:59;;;;;;;11.15;7.10;;;15.10;99.90;;;;;;4954172;28;20031;-69
2021/09/12 07:10:25;;;;;;;10.70;7.72;;;15.20;99.90;;;;;;4953111;28;20038;-69
2021/09/12 07:12:51;;;;;;;16.52;7.97;;;15.20;99.90;;;;;;4953925;28;20035;-69
2021/09/12 07:15:17;;;;;;;12.73;7.28;;;15.30;99.90;;;;;;4953383;29;20323;-69
2021/09/12 07:17:42;;;;;;;9.43;6.80;;;15.30;99.90;;;;;;4953867;29;20035;-69
2021/09/12 07:20:08;;;;;;;14.82;6.93;;;15.40;99.90;;;;;;4961285;28;20027;-69
2021/09/12 07:22:34;;;;;;;14.90;7.25;;;15.50;99.90;;;;;;4953257;28;20027;-69
2021/09/12 07:24:59;;;;;;;17.20;7.57;;;15.70;99.90;;;;;;4953351;28;20019;-69
2021/09/12 07:27:25;;;;;;;15.25;8.25;;;15.80;99.90;;;;;;4952860;28;20102;-70
2021/09/12 07:29:50;;;;;;;13.52;7.40;;;15.80;99.90;;;;;;4963334;28;20441;-69
2021/09/12 07:32:16;;;;;;;14.23;7.25;;;15.90;99.90;;;;;;4963183;28;20038;-70
2021/09/12 07:34:41;;;;;;;14.02;7.38;;;16.00;99.90;;;;;;4953582;29;20513;-69
2021/09/12 07:37:07;;;;;;;15.00;7.13;;;16.10;99.90;;;;;;4953105;28;20079;-70
2021/09/12 07:39:33;;;;;;;14.88;7.78;;;16.20;99.90;;;;;;4952881;28;20062;-70
2021/09/12 07:41:58;;;;;;;18.40;7.75;;;16.20;99.90;;;;;;4953134;28;20024;-69
2021/09/12 07:44:24;;;;;;;11.43;7.18;;;16.20;99.90;;;;;;4952996;28;20039;-70
2021/09/12 07:46:49;;;;;;;14.40;7.18;;;16.30;99.90;;;;;;4953175;28;20081;-70
2021/09/12 07:49:15;;;;;;;11.73;7.60;;;16.30;99.90;;;;;;4952953;28;20122;-70
2021/09/12 07:51:40;;;;;;;12.05;7.25;;;16.30;99.90;;;;;;4953774;29;20308;-70
2021/09/12 07:54:06;;;;;;;11.10;6.95;;;16.40;99.90;;;;;;4953041;28;20038;-70
2021/09/12 07:56:31;;;;;;;13.00;7.78;;;16.50;99.90;;;;;;4952892;29;20031;-69
2021/09/12 07:58:57;;;;;;;11.98;7.47;;;16.60;99.90;;;;;;4959322;28;20030;-70
2021/09/12 08:01:22;;;;;;;13.82;7.28;;;16.70;99.90;;;;;;4953067;28;20555;-69
2021/09/12 08:03:48;;;;;;;13.82;7.07;;;16.80;99.90;;;;;;4953168;28;20060;-70
2021/09/12 08:06:13;;;;;;;17.05;7.18;;;16.90;99.90;;;;;;4953628;28;20027;-70
2021/09/12 08:08:39;;;;;;;14.20;7.20;;;17.00;99.90;;;;;;4956953;28;20034;-70
2021/09/12 08:11:04;;;;;;;10.32;6.90;;;17.10;99.90;;;;;;4955734;29;20042;-70
2021/09/12 08:13:30;;;;;;;17.33;7.80;;;17.20;99.90;;;;;;4956422;28;20027;-70
2021/09/12 08:15:55;;;;;;;16.35;7.25;;;17.30;99.90;;;;;;4957125;28;20023;-70
2021/09/12 08:18:23;;;;;;;9.98;6.10;;;17.40;99.90;;;;;;4956549;28;20385;-70
2021/09/12 08:20:48;;;;;;;14.75;7.78;;;17.40;99.90;;;;;;4956746;28;20413;-70
2021/09/12 08:23:14;;;;;;;12.73;7.13;;;17.40;99.90;;;;;;4963369;28;20117;-70
2021/09/12 08:25:39;;;;;;;13.32;7.22;;;17.50;99.90;;;;;;4955334;29;20023;-70
2021/09/12 08:28:05;;;;;;;15.50;7.38;;;17.50;99.90;;;;;;4972704;28;20433;-70
2021/09/12 08:30:31;;;;;;;15.93;7.57;;;17.50;99.90;;;;;;4965533;28;20363;-70
2021/09/12 08:32:56;;;;;;;14.43;7.22;;;17.60;99.90;;;;;;4956701;28;20039;-70
2021/09/12 08:35:22;;;;;;;13.05;7.82;;;17.70;99.90;;;;;;4956296;28;20027;-70
2021/09/12 08:37:48;;;;;;;13.05;7.53;;;17.70;99.90;;;;;;4960656;28;20485;-70
2021/09/12 08:40:13;;;;;;;13.30;8.13;;;17.90;99.90;;;;;;4975855;28;20027;-70
2021/09/12 08:42:42;;;;;;;12.65;7.32;;;18.10;99.80;;;;;;4957503;28;20024;-70
2021/09/12 08:45:09;;;;;;;14.63;7.53;;;18.30;99.70;;;;;;4958568;28;20025;-70
2021/09/12 08:47:34;;;;;;;17.33;8.10;;;18.50;99.20;;;;;;4975123;28;20031;-70
2021/09/12 08:50:01;;;;;;;12.38;6.70;;;18.60;98.90;;;;;;4962225;28;20081;-70
2021/09/12 08:52:27;;;;;;;13.98;7.57;;;18.60;98.60;;;;;;4955778;28;20023;-71
2021/09/12 08:54:52;;;;;;;14.73;7.80;;;18.70;98.50;;;;;;4956105;28;20038;-71
2021/09/12 08:57:18;;;;;;;10.02;7.22;;;18.70;98.20;;;;;;4960618;28;20038;-70
2021/09/12 08:59:49;;;;;;;14.40;6.38;;;18.70;98.00;;;;;;4975609;28;20031;-70
2021/09/12 09:02:14;;;;;;;15.88;7.53;;;18.80;98.10;;;;;;4975596;28;20363;-70
2021/09/12 09:04:40;;;;;;;12.05;6.93;;;18.90;98.10;;;;;;4959512;28;20034;-70
2021/09/12 09:07:08;;;;;;;11.32;6.40;;;19.00;97.80;;;;;;4956227;28;20414;-70
2021/09/12 09:10:01;;;;;;;12.40;7.43;;;19.00;97.40;;;;;;4955561;28;20295;-70
2021/09/12 09:12:37;;;;;;;14.07;7.22;;;19.20;97.40;;;;;;4953804;28;20031;-70
2021/09/12 09:15:14;;;;;;;14.35;6.57;;;19.20;96.90;;;;;;4956195;28;20055;-70
2021/09/12 09:17:45;;;;;;;10.95;6.25;;;19.30;96.90;;;;;;4955138;28;20060;-70
2021/09/12 09:20:15;;;;;;;13.50;7.70;;;19.40;96.90;;;;;;4955526;28;20050;-70
2021/09/12 09:22:43;;;;;;;16.52;6.72;;;19.50;96.50;;;;;;4955852;29;20269;-69
2021/09/12 09:25:18;;;;;;;14.68;6.93;;;19.60;96.40;;;;;;4955853;28;20474;-70
2021/09/12 09:28:00;;;;;;;12.70;7.47;;;19.70;96.20;;;;;;4955912;28;20031;-70
2021/09/12 09:30:29;;;;;;;12.05;7.00;;;19.70;96.10;;;;;;4955014;28;20023;-70
2021/09/12 09:33:15;;;;;;;11.85;6.95;;;19.80;96.10;;;;;;4957151;28;20031;-70
2021/09/12 09:36:08;;;;;;;13.00;6.47;;;19.90;95.80;;;;;;4955689;28;20450;-69
2021/09/12 09:38:39;;;;;;;10.15;6.68;;;20.10;95.80;;;;;;4954923;28;20039;-71
2021/09/12 09:41:17;;;;;;;11.68;7.18;;;20.20;95.40;;;;;;4955582;29;20039;-71
2021/09/12 09:43:52;;;;;;;11.00;6.35;;;20.20;95.20;;;;;;4955517;28;20468;-70
2021/09/12 09:46:28;;;;;;;14.82;7.78;;;20.20;95.10;;;;;;4954725;28;20474;-70
2021/09/12 09:48:54;;;;;;;15.07;8.40;;;20.20;95.00;;;;;;4954209;29;20027;-70
2021/09/12 09:51:24;;;;;;;14.35;8.30;;;20.10;94.70;;;;;;4954862;28;20419;-70
2021/09/12 09:53:50;;;;;;;11.40;7.80;;;20.00;94.70;;;;;;4955359;28;20031;-69
2021/09/12 09:56:16;;;;;;;11.45;7.35;;;19.90;94.90;;;;;;4958741;28;20099;-70
2021/09/12 09:58:43;;;;;;;12.80;8.05;;;19.90;95.10;;;;;;4955292;29;20102;-71
2021/09/12 10:01:09;;;;;;;15.25;7.97;;;20.00;95.20;;;;;;4959824;28;20029;-70
2021/09/12 10:03:35;;;;;;;12.52;8.95;;;20.10;95.00;;;;;;4967920;28;20070;-70
2021/09/12 10:06:00;;;;;;;11.82;7.65;;;20.10;95.00;;;;;;4954980;28;20055;-70
2021/09/12 10:08:26;;;;;;;10.90;7.93;;;20.30;95.30;;;;;;4954522;29;20055;-70
2021/09/12 10:10:53;;;;;;;12.88;8.27;;;20.40;94.80;;;;;;4955309;28;20090;-70
2021/09/12 10:13:22;;;;;;;11.70;8.07;;;20.40;94.70;;;;;;4954490;28;20038;-70
2021/09/12 10:15:51;;;;;;;14.38;9.85;;;20.40;94.40;;;;;;4955198;28;20031;-69
2021/09/12 10:18:23;;;;;;;14.55;9.15;;;20.30;94.00;;;;;;4954037;28;20034;-70
2021/09/12 10:20:49;;;;;;;13.63;9.35;;;20.20;94.10;;;;;;4954909;28;20023;-70
2021/09/12 10:23:15;;;;;;;17.02;11.20;;;20.10;94.10;;;;;;4954365;28;20390;-70
2021/09/12 10:25:57;;;;;;;19.70;10.93;;;19.90;94.20;;;;;;4966912;28;20023;-70
2021/09/12 10:28:28;;;;;;;17.80;10.97;;;19.90;94.30;;;;;;4958242;28;20497;-70
2021/09/12 10:30:54;;;;;;;15.60;9.55;;;19.80;94.40;;;;;;4953971;28;20278;-70
2021/09/12 10:33:25;;;;;;;15.10;10.68;;;19.80;94.50;;;;;;4954242;28;20027;-69
2021/09/12 10:35:59;;;;;;;15.43;10.67;;;19.80;94.40;;;;;;4954488;28;20039;-70
2021/09/12 10:38:26;;;;;;;15.35;10.13;;;19.70;94.60;;;;;;4954067;29;20039;-70
2021/09/12 10:40:53;;;;;;;16.92;11.38;;;19.70;94.70;;;;;;4954520;29;20031;-70
2021/09/12 10:43:25;;;;;;;14.93;10.18;;;19.80;94.50;;;;;;4953964;29;20020;-70
2021/09/12 10:46:05;;;;;;;13.43;9.57;;;19.90;94.60;;;;;;4954155;29;20049;-71
2021/09/12 10:48:41;;;;;;;16.02;10.15;;;20.00;94.50;;;;;;4953772;28;20110;-70
2021/09/12 10:51:18;;;;;;;14.80;9.15;;;20.00;94.40;;;;;;4954401;28;20027;-70
2021/09/12 10:53:44;;;;;;;13.55;8.52;;;20.00;94.40;;;;;;4954282;28;20030;-70
2021/09/12 10:56:10;;;;;;;16.75;10.18;;;20.10;94.50;;;;;;4971877;28;20078;-70
2021/09/12 10:58:36;;;;;;;14.52;10.15;;;20.20;94.30;;;;;;4967834;28;20019;-70
2021/09/12 11:01:03;;;;;;;13.55;10.35;;;20.40;94.30;;;;;;4954190;29;20034;-70
2021/09/12 11:03:29;;;;;;;15.48;10.65;;;20.50;94.10;;;;;;4953640;28;20019;-70
2021/09/12 11:05:56;;;;;;;20.42;12.13;;;20.70;94.10;;;;;;4954522;28;20027;-70
2021/09/12 11:08:39;;;;;;;15.73;10.88;;;20.70;93.80;;;;;;4953514;28;20032;-70
2021/09/12 11:11:06;;;;;;;15.10;10.20;;;20.80;93.90;;;;;;4953919;28;20398;-70
2021/09/12 11:13:32;;;;;;;15.63;10.80;;;20.80;93.70;;;;;;4952391;29;20054;-70
2021/09/12 11:16:09;;;;;;;14.90;10.73;;;20.90;93.50;;;;;;4953601;28;20031;-70
2021/09/12 11:18:47;;;;;;;15.55;9.73;;;21.00;93.50;;;;;;4953310;28;20035;-70
2021/09/12 11:21:25;;;;;;;14.88;10.07;;;21.10;93.60;;;;;;4953590;28;20077;-70
2021/09/12 11:24:18;;;;;;;16.95;12.00;;;21.30;93.30;;;;;;4953803;29;20023;-71
2021/09/12 11:26:50;;;;;;;20.88;13.00;;;21.30;92.90;;;;;;4952064;28;20063;-70
2021/09/12 11:29:21;;;;;;;15.00;12.00;;;21.20;92.70;;;;;;4953412;28;20100;-70
2021/09/12 11:32:18;;;;;;;15.93;13.00;;;21.20;92.50;;;;;;4953414;29;20019;-70
2021/09/12 11:34:48;;;;;;;19.20;13.10;;;21.20;92.40;;;;;;4970340;28;20034;-70
2021/09/12 11:37:16;;;;;;;16.45;12.68;;;21.20;92.40;;;;;;4959630;28;20125;-69
2021/09/12 11:39:44;;;;;;;14.90;11.68;;;21.30;92.50;;;;;;4953508;28;20031;-70
2021/09/12 11:42:12;;;;;;;17.52;12.02;;;21.30;92.50;;;;;;4952819;28;20028;-70
2021/09/12 11:44:43;;;;;;;17.15;13.35;;;21.30;92.30;;;;;;4952997;28;20074;-70
2021/09/12 11:47:11;;;;;;;20.83;14.23;;;21.30;92.40;;;;;;4953348;28;20019;-70
2021/09/12 11:49:37;;;;;;;18.73;13.40;;;21.40;92.60;;;;;;4953191;29;20098;-70
2021/09/12 11:52:03;;;;;;;20.08;14.50;;;21.50;92.40;;;;;;4953364;28;20031;-70
2021/09/12 11:54:35;;;;;;;16.77;13.77;;;21.60;92.20;;;;;;4967447;28;20030;-70
2021/09/12 11:57:04;;;;;;;20.15;14.43;;;21.70;92.00;;;;;;4971552;28;20026;-70
2021/09/12 11:59:32;;;;;;;15.63;12.50;;;21.80;91.90;;;;;;4966888;28;20106;-70
2021/09/12 12:01:59;;;;;;;19.52;13.93;;;21.90;91.90;;;;;;4955079;28;20070;-70
2021/09/12 12:04:27;;;;;;;19.08;12.80;;;21.90;91.50;;;;;;4953017;28;20027;-69
2021/09/12 12:06:55;;;;;;;15.90;12.60;;;21.80;91.50;;;;;;4953387;28;20026;-70
2021/09/12 12:09:30;;;;;;;21.27;14.75;;;21.80;91.80;;;;;;4952856;28;20023;-70
2021/09/12 12:12:29;;;;;;;19.83;12.95;;;21.90;91.30;;;;;;4953308;28;20546;-70
2021/09/12 12:15:00;;;;;;;15.70;13.20;;;21.90;91.30;;;;;;4952041;28;20043;-70
2021/09/12 12:17:27;;;;;;;17.17;12.50;;;21.80;91.50;;;;;;4952706;28;20027;-69
2021/09/12 12:19:57;;;;;;;18.10;13.95;;;21.80;91.50;;;;;;4953392;28;20019;-70
2021/09/12 12:22:33;;;;;;;21.02;14.18;;;21.80;91.50;;;;;;4952829;28;20027;-70
2021/09/12 12:24:58;;;;;;;18.67;13.52;;;21.90;91.60;;;;;;4953374;29;20082;-70
2021/09/12 12:27:24;;;;;;;21.52;14.48;;;21.90;91.50;;;;;;4951546;29;20031;-70
2021/09/12 12:30:02;;;;;;;18.40;14.00;;;21.90;91.30;;;;;;4952888;28;20119;-70
2021/09/12 12:32:29;;;;;;;18.33;14.07;;;21.80;91.10;;;;;;4952393;28;20400;-70